Time;durP1;ratioP1;P1;durP2;ratioP2;P2;SDS_P1;SDS_P2;PMS_P1;PMS_P2;Temp;Humidity;BMP_temperature;BMP_pressure;BME280_temperature;BME280_humidity;BME280_pressure;Samples;Min_cycle;Max_cycle;Signal;HPM_P1;HPM_P2
2023/04/26 00:02:26;;;;;;;23.38;11.30;;;;;;;13.75;88.57;99742.97;5011438;28;20092;-83
2023/04/26 00:04:56;;;;;;;19.85;11.32;;;;;;;13.76;88.66;99750.03;5010995;28;20076;-83
2023/04/26 00:07:23;;;;;;;19.83;10.07;;;;;;;13.81;88.40;99747.69;5010305;28;20397;-84
2023/04/26 00:09:50;;;;;;;28.00;11.27;;;;;;;13.84;88.09;99747.38;5010562;28;20681;-84
2023/04/26 00:12:16;;;;;;;60.45;21.25;;;;;;;13.86;88.21;99750.72;5010344;28;20033;-82
2023/04/26 00:14:41;;;;;;;34.90;14.30;;;;;;;13.91;87.89;99752.94;5011026;28;20115;-84
2023/04/26 00:17:07;;;;;;;35.78;11.07;;;;;;;13.89;87.78;99753.09;5011336;28;20121;-82
2023/04/26 00:19:32;;;;;;;21.95;9.30;;;;;;;13.92;87.80;99755.47;5010712;28;20068;-83
2023/04/26 00:21:58;;;;;;;10.18;6.22;;;;;;;13.93;87.30;99757.16;5010993;28;20036;-83
2023/04/26 00:24:23;;;;;;;8.38;5.55;;;;;;;13.94;87.61;99752.63;5010498;28;20026;-83
2023/04/26 00:26:52;;;;;;;7.93;5.22;;;;;;;13.88;87.46;99742.47;5026521;28;20018;-81
2023/04/26 00:29:17;;;;;;;10.63;5.78;;;;;;;13.93;87.26;99754.47;5032284;28;20042;-82
2023/04/26 00:31:42;;;;;;;13.60;6.15;;;;;;;13.92;87.73;99758.19;5016466;28;20029;-85
2023/04/26 00:34:08;;;;;;;9.40;4.65;;;;;;;13.94;87.53;99753.44;5010409;28;20041;-82
2023/04/26 00:36:33;;;;;;;10.45;5.15;;;;;;;13.98;87.47;99752.09;5010213;28;20076;-83
2023/04/26 00:38:59;;;;;;;8.75;5.13;;;;;;;13.97;87.18;99741.47;5009827;28;20416;-83
2023/04/26 00:41:24;;;;;;;8.93;5.35;;;;;;;14.05;86.67;99752.28;5010428;28;20026;-82
2023/04/26 00:43:49;;;;;;;9.18;4.78;;;;;;;14.02;86.30;99745.34;5008896;28;20096;-83
2023/04/26 00:46:15;;;;;;;10.00;4.82;;;;;;;13.96;85.70;99740.63;5010472;28;20507;-82
2023/04/26 00:48:41;;;;;;;14.57;6.40;;;;;;;14.02;85.92;99739.94;5009882;28;20041;-83
2023/04/26 00:51:07;;;;;;;11.05;7.57;;;;;;;13.96;86.10;99746.03;5009768;28;20520;-85
2023/04/26 00:53:35;;;;;;;15.30;8.35;;;;;;;13.98;86.40;99744.00;4991498;28;20520;-84
2023/04/26 00:56:02;;;;;;;21.42;10.18;;;;;;;13.99;86.64;99744.84;5009759;28;20566;-84
2023/04/26 00:58:28;;;;;;;17.65;10.18;;;;;;;14.00;86.74;99751.94;5010118;28;20025;-82
2023/04/26 01:00:54;;;;;;;15.30;9.43;;;;;;;13.85;86.54;99732.81;5009995;28;20033;-82
2023/04/26 01:03:19;;;;;;;12.95;8.80;;;;;;;13.86;86.58;99742.63;5008812;28;20026;-84
2023/04/26 01:05:45;;;;;;;19.90;9.85;;;;;;;13.84;86.79;99751.91;5009656;28;20481;-82
2023/04/26 01:08:11;;;;;;;17.95;10.93;;;;;;;13.83;87.24;99745.66;5008074;28;20025;-84
2023/04/26 01:10:38;;;;;;;25.30;13.20;;;;;;;13.78;87.67;99741.78;5010334;28;20437;-84
2023/04/26 01:13:04;;;;;;;25.30;13.07;;;;;;;13.81;88.21;99747.69;5008076;28;20394;-81
2023/04/26 01:15:31;;;;;;;26.48;11.88;;;;;;;13.81;88.46;99742.28;5009613;28;20053;-83
2023/04/26 01:17:57;;;;;;;29.20;11.85;;;;;;;13.81;88.33;99742.28;5009657;28;20042;-84
2023/04/26 01:20:23;;;;;;;28.35;13.70;;;;;;;13.82;88.54;99737.75;5011748;28;20056;-84
2023/04/26 01:22:48;;;;;;;28.30;13.85;;;;;;;13.87;88.82;99738.91;5015688;28;20038;-81
2023/04/26 01:25:15;;;;;;;33.10;13.00;;;;;;;13.84;89.16;99736.56;5028681;28;20086;-79
2023/04/26 01:27:40;;;;;;;35.05;12.82;;;;;;;13.80;89.27;99732.47;5028665;28;20049;-82
2023/04/26 01:30:07;;;;;;;20.27;12.32;;;;;;;13.84;89.23;99731.16;4995475;28;20052;-81
2023/04/26 01:32:33;;;;;;;17.40;11.02;;;;;;;13.95;88.83;99733.50;5017988;28;20037;-83
2023/04/26 01:34:59;;;;;;;20.38;11.70;;;;;;;13.90;88.30;99719.66;5009496;28;20045;-82
2023/04/26 01:37:25;;;;;;;15.70;10.38;;;;;;;13.98;87.83;99732.31;5009814;28;20025;-83
2023/04/26 01:39:51;;;;;;;18.15;12.15;;;;;;;13.98;87.87;99727.75;5009453;28;20030;-84
2023/04/26 01:42:16;;;;;;;18.83;11.85;;;;;;;14.01;87.54;99727.44;5009426;28;20069;-81
2023/04/26 01:44:42;;;;;;;15.55;12.45;;;;;;;13.92;87.35;99712.22;5009190;28;20392;-82
2023/04/26 01:47:07;;;;;;;21.50;11.63;;;;;;;13.95;87.75;99722.69;5009364;28;20026;-83
2023/04/26 01:49:33;;;;;;;19.33;12.30;;;;;;;13.93;87.70;99719.31;5009231;28;20028;-82
2023/04/26 01:52:00;;;;;;;27.35;13.45;;;;;;;13.94;87.69;99728.28;5006961;28;20038;-82
2023/04/26 01:54:25;;;;;;;21.35;12.93;;;;;;;13.85;88.10;99722.00;5009408;28;20404;-83
2023/04/26 01:56:51;;;;;;;26.02;13.70;;;;;;;13.82;88.46;99721.53;5007347;28;20045;-83
2023/04/26 01:59:16;;;;;;;23.70;13.23;;;;;;;13.81;89.00;99715.28;5009434;28;20044;-84
2023/04/26 02:01:42;;;;;;;20.00;13.05;;;;;;;13.82;88.45;99713.41;5009535;28;20340;-83
2023/04/26 02:04:08;;;;;;;22.42;11.95;;;;;;;13.79;88.56;99719.97;5009512;28;20025;-81
2023/04/26 02:06:33;;;;;;;45.08;12.02;;;;;;;13.78;88.75;99721.00;5009231;28;20097;-82
2023/04/26 02:08:59;;;;;;;26.17;14.25;;;;;;;13.79;88.57;99711.03;5009654;28;20030;-82
2023/04/26 02:11:25;;;;;;;21.77;13.55;;;;;;;13.81;88.39;99720.66;5010094;28;20056;-83
2023/04/26 02:13:52;;;;;;;25.70;15.98;;;;;;;13.79;88.00;99709.16;5007842;28;20050;-85
2023/04/26 02:16:17;;;;;;;35.28;17.23;;;;;;;13.84;87.88;99714.94;5014214;28;20056;-84
2023/04/26 02:18:43;;;;;;;24.85;16.10;;;;;;;13.86;87.65;99717.44;5014526;28;20022;-83
2023/04/26 02:21:10;;;;;;;26.70;16.92;;;;;;;13.85;87.70;99715.78;5021241;28;20030;-80
2023/04/26 02:23:35;;;;;;;28.98;17.20;;;;;;;13.86;87.67;99718.31;5028670;28;20116;-83
2023/04/26 02:26:02;;;;;;;28.05;18.40;;;;;;;13.89;87.18;99717.97;5019999;28;20128;-79
2023/04/26 02:28:27;;;;;;;30.02;17.85;;;;;;;13.85;86.71;99722.00;5013930;28;20037;-83
2023/04/26 02:30:53;;;;;;;33.47;19.40;;;;;;;13.76;86.83;99723.00;5016364;28;20022;-83
2023/04/26 02:33:18;;;;;;;41.78;18.63;;;;;;;13.68;87.26;99719.47;5021511;28;20034;-81
2023/04/26 02:35:43;;;;;;;36.83;19.42;;;;;;;13.59;87.47;99718.59;5022918;28;20022;-81
2023/04/26 02:38:09;;;;;;;37.42;20.40;;;;;;;13.53;87.55;99721.97;5018244;28;20026;-83
2023/04/26 02:40:34;;;;;;;46.90;22.80;;;;;;;13.51;87.73;99713.19;5016523;28;20114;-81
2023/04/26 02:43:00;;;;;;;45.30;23.08;;;;;;;13.43;88.11;99711.31;5015292;28;20038;-79
2023/04/26 02:45:25;;;;;;;43.63;22.25;;;;;;;13.47;88.48;99715.38;5015033;28;20041;-82
2023/04/26 02:47:51;;;;;;;45.85;21.17;;;;;;;13.47;88.80;99712.69;5013566;28;20057;-80
2023/04/26 02:50:17;;;;;;;36.53;21.58;;;;;;;13.45;88.60;99700.34;5016106;28;20029;-81
2023/04/26 02:52:42;;;;;;;45.40;22.60;;;;;;;13.52;88.57;99717.56;5016325;28;20057;-83
2023/04/26 02:55:08;;;;;;;43.53;23.75;;;;;;;13.53;88.26;99713.88;5016150;28;20037;-84
2023/04/26 02:57:33;;;;;;;40.70;23.23;;;;;;;13.51;88.40;99715.91;5013377;28;20053;-85
2023/04/26 02:59:59;;;;;;;50.15;22.25;;;;;;;13.52;88.58;99709.47;5013699;28;20121;-83
2023/04/26 03:02:25;;;;;;;30.17;17.90;;;;;;;13.46;88.33;99710.97;5014192;28;20033;-83
2023/04/26 03:04:50;;;;;;;28.52;18.35;;;;;;;13.46;88.28;99716.38;5012887;28;20022;-84
2023/04/26 03:07:15;;;;;;;33.97;21.60;;;;;;;13.51;88.27;99702.41;5012913;28;20041;-83
2023/04/26 03:09:41;;;;;;;25.85;17.90;;;;;;;13.46;87.81;99699.31;5016005;28;20028;-83
2023/04/26 03:12:07;;;;;;;29.17;15.90;;;;;;;13.42;86.98;99689.88;5020660;28;20065;-82
2023/04/26 03:14:33;;;;;;;39.72;19.15;;;;;;;13.49;86.82;99705.25;5015397;28;20054;-81
2023/04/26 03:16:59;;;;;;;32.85;18.85;;;;;;;13.50;86.61;99701.53;5015266;28;20036;-82
2023/04/26 03:19:26;;;;;;;37.03;18.73;;;;;;;13.51;86.75;99707.78;5018706;28;20378;-83
2023/04/26 03:21:51;;;;;;;29.52;17.25;;;;;;;13.56;86.51;99700.03;5021293;28;20084;-83
2023/04/26 03:24:16;;;;;;;36.03;18.30;;;;;;;13.57;86.68;99707.13;5018858;28;20029;-82
2023/04/26 03:26:42;;;;;;;45.38;17.60;;;;;;;13.57;86.46;99704.44;5019953;28;20013;-86
2023/04/26 03:29:08;;;;;;;30.55;16.35;;;;;;;13.52;86.44;99706.75;5033316;28;20018;-87
2023/04/26 03:31:33;;;;;;;30.05;16.48;;;;;;;13.56;86.47;99705.44;5027645;28;20026;-85
2023/04/26 03:33:59;;;;;;;37.08;17.58;;;;;;;13.56;86.55;99705.44;5023996;28;20523;-87
2023/04/26 03:36:27;;;;;;;53.03;17.35;;;;;;;13.56;86.64;99697.31;5026475;28;20131;-87
2023/04/26 03:38:53;;;;;;;37.13;17.20;;;;;;;13.61;86.76;99700.38;5030001;28;20060;-89
2023/04/26 03:41:18;;;;;;;41.45;15.73;;;;;;;13.68;86.49;99695.13;5038730;28;20033;-82
2023/04/26 03:43:44;;;;;;;36.05;14.05;;;;;;;13.76;85.92;99701.38;5044915;28;20048;-90
2023/04/26 03:46:09;;;;;;;33.85;13.43;;;;;;;13.79;85.78;99701.06;5040338;28;20026;-87
2023/04/26 03:48:35;;;;;;;37.00;14.60;;;;;;;13.84;85.69;99700.56;5037256;28;20033;-88
2023/04/26 03:51:01;;;;;;;33.80;13.77;;;;;;;13.88;85.36;99707.34;5039721;28;20025;-87
2023/04/26 03:53:26;;;;;;;46.75;13.88;;;;;;;13.89;85.49;99704.44;5032938;28;20095;-86
2023/04/26 03:55:52;;;;;;;40.47;13.02;;;;;;;13.90;85.26;99714.25;5032261;28;20017;-84
2023/04/26 03:58:17;;;;;;;25.48;12.18;;;;;;;13.88;84.91;99710.03;5013779;28;20401;-82
2023/04/26 04:00:43;;;;;;;22.38;13.10;;;;;;;13.89;85.00;99707.16;5014487;28;20084;-80
2023/04/26 04:03:08;;;;;;;18.35;11.60;;;;;;;14.04;84.57;99710.88;5012605;28;20112;-86
2023/04/26 04:05:34;;;;;;;26.75;15.07;;;;;;;14.10;84.28;99706.63;5010829;28;20030;-85
2023/04/26 04:08:00;;;;;;;35.53;17.27;;;;;;;14.17;84.29;99710.38;5010276;28;20053;-82
2023/04/26 04:10:26;;;;;;;53.70;20.95;;;;;;;14.21;84.18;99718.97;5009245;28;20030;-83
2023/04/26 04:12:52;;;;;;;49.05;17.83;;;;;;;14.19;84.18;99708.31;5010034;28;20488;-84
2023/04/26 04:15:19;;;;;;;45.85;19.05;;;;;;;14.26;83.99;99716.59;5012157;28;20060;-82
2023/04/26 04:17:45;;;;;;;55.33;18.83;;;;;;;14.32;84.14;99729.44;5026382;28;20057;-81
2023/04/26 04:20:11;;;;;;;68.88;19.80;;;;;;;14.26;84.13;99730.97;5026808;28;20034;-83
2023/04/26 04:22:38;;;;;;;45.42;19.13;;;;;;;14.33;84.50;99731.19;5010242;28;20022;-82
2023/04/26 04:25:05;;;;;;;48.47;19.17;;;;;;;14.35;84.32;99724.56;5010037;28;20057;-81
2023/04/26 04:27:31;;;;;;;66.93;18.52;;;;;;;14.40;84.08;99726.78;5009686;28;20030;-80
2023/04/26 04:29:56;;;;;;;60.25;20.15;;;;;;;14.43;84.41;99721.84;5009820;28;20029;-85
2023/04/26 04:32:22;;;;;;;66.53;20.17;;;;;;;14.45;84.56;99725.25;5010437;28;20025;-84
2023/04/26 04:34:49;;;;;;;73.00;21.10;;;;;;;14.39;85.03;99719.66;5009684;28;20034;-85
2023/04/26 04:37:15;;;;;;;73.25;18.52;;;;;;;14.45;85.10;99724.41;5009572;28;20026;-83
2023/04/26 04:39:41;;;;;;;63.10;18.20;;;;;;;14.51;84.82;99724.56;5010721;28;20032;-85
2023/04/26 04:42:07;;;;;;;66.22;19.27;;;;;;;14.54;84.82;99726.91;5010805;28;20030;-85
2023/04/26 04:44:32;;;;;;;49.30;19.35;;;;;;;14.63;84.96;99734.00;5010587;28;20452;-84
2023/04/26 04:46:58;;;;;;;79.40;20.35;;;;;;;14.70;84.50;99718.78;5010260;28;20048;-84
2023/04/26 04:49:23;;;;;;;60.55;17.60;;;;;;;14.75;84.07;99723.66;5009191;28;20036;-82
2023/04/26 04:51:50;;;;;;;47.67;18.55;;;;;;;14.94;83.92;99719.69;5009265;28;20061;-84
2023/04/26 04:54:17;;;;;;;69.30;20.50;;;;;;;15.12;83.04;99723.88;5010251;28;20033;-84
2023/04/26 04:56:43;;;;;;;99.15;24.27;;;;;;;15.20;82.85;99720.25;5009112;28;20018;-83
2023/04/26 04:59:09;;;;;;;67.03;18.02;;;;;;;15.21;82.07;99724.66;5009361;28;20034;-83
2023/04/26 05:01:38;;;;;;;51.30;16.70;;;;;;;15.35;81.11;99712.25;5011009;28;20468;-86
2023/04/26 05:04:05;;;;;;;53.83;16.70;;;;;;;15.35;80.64;99723.09;5017634;28;20488;-87
2023/04/26 05:06:51;;;;;;;47.35;17.58;;;;;;;15.38;80.04;99712.72;5011803;28;20037;-84
2023/04/26 05:09:16;;;;;;;62.47;18.58;;;;;;;15.48;79.73;99726.06;5011589;28;20084;-85
2023/04/26 05:11:42;;;;;;;61.25;18.95;;;;;;;15.57;79.57;99730.44;5013011;28;20045;-85
2023/04/26 05:14:07;;;;;;;69.45;19.77;;;;;;;15.58;79.30;99729.41;5033543;28;20061;-80
2023/04/26 05:16:32;;;;;;;81.85;21.45;;;;;;;15.62;78.55;99719.91;5029118;28;20098;-84
2023/04/26 05:18:58;;;;;;;84.55;20.48;;;;;;;15.63;78.02;99727.00;5008510;28;20734;-88
2023/04/26 05:21:23;;;;;;;62.30;18.55;;;;;;;15.71;77.82;99735.94;5017780;28;20033;-85
2023/04/26 05:23:49;;;;;;;54.80;18.25;;;;;;;15.75;77.04;99734.53;5020239;28;20102;-88
2023/04/26 05:26:15;;;;;;;51.10;20.48;;;;;;;15.70;76.35;99727.97;5024938;28;20049;-87
2023/04/26 05:28:41;;;;;;;40.60;16.67;;;;;;;15.80;76.00;99739.44;5018242;28;20445;-89
2023/04/26 05:31:08;;;;;;;65.93;20.25;;;;;;;15.72;76.09;99725.91;5007976;28;20029;-88
2023/04/26 05:33:33;;;;;;;44.40;18.52;;;;;;;15.86;75.82;99744.16;4994407;28;20042;-89
2023/04/26 05:35:58;;;;;;;65.60;19.25;;;;;;;15.79;75.74;99744.00;5007929;28;20168;-87
2023/04/26 05:38:24;;;;;;;43.92;19.13;;;;;;;15.79;75.46;99740.47;4986485;28;20042;-88
2023/04/26 05:40:50;;;;;;;55.72;23.75;;;;;;;15.69;75.54;99723.56;5010248;28;20064;-87
2023/04/26 05:43:15;;;;;;;90.85;25.33;;;;;;;15.68;76.10;99735.47;5009534;28;20038;-91
2023/04/26 05:45:54;;;;;;;55.25;28.77;;;;;;;15.84;76.19;99751.59;4990614;28;20061;-86
2023/04/26 05:48:21;;;;;;;67.55;33.22;;;;;;;15.78;76.05;99747.75;5007416;28;20034;-90
2023/04/26 05:50:47;;;;;;;65.95;34.17;;;;;;;15.78;76.32;99752.31;5001204;28;20639;-86
2023/04/26 05:53:13;;;;;;;138.50;40.30;;;;;;;15.82;76.10;99742.81;5009871;28;20504;-82
2023/04/26 05:55:40;;;;;;;78.50;29.30;;;;;;;15.90;76.44;99744.63;5008357;28;20030;-82
2023/04/26 05:58:06;;;;;;;69.65;27.08;;;;;;;15.85;75.89;99737.03;5010898;28;20057;-92
2023/04/26 06:00:32;;;;;;;107.55;31.42;;;;;;;15.89;76.16;99751.91;5009134;28;20030;-85
2023/04/26 06:02:57;;;;;;;95.75;32.97;;;;;;;15.99;75.87;99759.81;5008514;28;20028;-80
2023/04/26 06:05:22;;;;;;;70.38;29.38;;;;;;;15.99;76.59;99760.63;5006476;28;20030;-81
2023/04/26 06:07:48;;;;;;;83.10;31.35;;;;;;;15.99;76.93;99755.22;5005763;28;20138;-81
2023/04/26 06:10:14;;;;;;;93.13;37.22;;;;;;;16.03;76.69;99766.56;5032898;28;20033;-79
2023/04/26 06:12:40;;;;;;;81.15;36.95;;;;;;;16.08;76.78;99770.44;5033356;28;20041;-80
2023/04/26 06:15:06;;;;;;;68.10;37.58;;;;;;;16.08;76.38;99756.88;5010680;28;20061;-83
2023/04/26 06:17:31;;;;;;;76.97;41.42;;;;;;;16.06;76.63;99758.06;5007219;28;20042;-84
2023/04/26 06:19:56;;;;;;;81.32;44.03;;;;;;;16.20;76.59;99768.13;5008211;28;20026;-84
2023/04/26 06:22:22;;;;;;;72.97;44.38;;;;;;;16.16;76.72;99773.06;5008711;28;20030;-84
2023/04/26 06:24:48;;;;;;;87.85;47.42;;;;;;;16.15;77.45;99768.66;5008663;28;20038;-84
2023/04/26 06:27:13;;;;;;;85.60;46.85;;;;;;;16.14;78.06;99771.56;5008454;28;20103;-84
2023/04/26 06:29:38;;;;;;;76.35;48.97;;;;;;;16.10;78.31;99771.09;5008548;28;20574;-85
2023/04/26 06:32:04;;;;;;;93.20;48.22;;;;;;;16.05;78.70;99778.09;5008150;28;20216;-84
2023/04/26 06:34:30;;;;;;;83.32;49.38;;;;;;;15.92;78.52;99770.53;5008363;28;20532;-85
2023/04/26 06:36:56;;;;;;;86.18;49.03;;;;;;;15.83;78.91;99781.63;5008012;28;20160;-83
2023/04/26 06:39:21;;;;;;;83.30;50.28;;;;;;;15.94;79.67;99768.47;5008553;28;20148;-85
2023/04/26 06:41:46;;;;;;;97.78;54.38;;;;;;;16.04;79.75;99774.53;5008086;28;20525;-83
2023/04/26 06:44:12;;;;;;;88.72;53.33;;;;;;;16.08;79.79;99775.84;5007269;28;20460;-84
2023/04/26 06:46:37;;;;;;;89.63;53.15;;;;;;;16.09;79.44;99771.25;5009467;28;20038;-82
2023/04/26 06:49:03;;;;;;;79.20;51.83;;;;;;;16.06;79.97;99766.19;5009977;28;20443;-85
2023/04/26 06:51:28;;;;;;;93.30;55.20;;;;;;;16.17;79.86;99782.91;5007539;28;20413;-83
2023/04/26 06:53:56;;;;;;;87.68;52.33;;;;;;;16.23;79.76;99776.75;5008799;28;20084;-85
2023/04/26 06:56:22;;;;;;;69.82;42.22;;;;;;;16.26;79.60;99791.81;5013694;28;20052;-82
2023/04/26 06:58:58;;;;;;;67.22;40.80;;;;;;;16.24;80.02;99785.72;5016589;28;20066;-82
2023/04/26 07:01:23;;;;;;;58.33;37.20;;;;;;;16.30;78.86;99779.56;5022835;28;20060;-80
2023/04/26 07:03:49;;;;;;;61.10;36.63;;;;;;;16.29;78.68;99773.31;5024814;28;20030;-85
2023/04/26 07:06:14;;;;;;;66.78;38.47;;;;;;;16.29;78.69;99786.88;5034552;28;20026;-82
2023/04/26 07:08:39;;;;;;;64.90;41.72;;;;;;;16.27;78.82;99780.78;5037947;28;20038;-80
2023/04/26 07:11:12;;;;;;;65.95;41.90;;;;;;;16.23;79.69;99794.91;5038338;28;20068;-88
2023/04/26 07:13:37;;;;;;;68.82;43.08;;;;;;;16.30;79.62;99791.28;5014874;28;20062;-86
2023/04/26 07:16:03;;;;;;;65.47;42.28;;;;;;;16.25;78.84;99793.69;5013848;28;20048;-92
2023/04/26 07:18:29;;;;;;;65.47;43.08;;;;;;;16.29;77.88;99791.47;5014167;28;20021;-91
2023/04/26 07:20:54;;;;;;;66.10;40.47;;;;;;;16.22;77.26;99775.06;5027417;28;20030;-81
2023/04/26 07:23:20;;;;;;;51.28;37.30;;;;;;;16.34;76.88;99792.59;5036547;28;20033;-82
2023/04/26 07:25:45;;;;;;;50.72;33.03;;;;;;;16.38;76.34;99787.66;5026048;28;20044;-84
2023/04/26 07:28:11;;;;;;;51.88;36.63;;;;;;;16.45;76.05;99795.91;5015292;28;20022;-90
2023/04/26 07:30:36;;;;;;;55.10;31.85;;;;;;;16.45;76.53;99782.34;5014532;28;20025;-91
2023/04/26 07:33:01;;;;;;;34.95;25.52;;;;;;;16.54;76.11;99783.97;5012805;28;20018;-90
2023/04/26 07:35:27;;;;;;;46.65;28.15;;;;;;;16.60;74.95;99791.41;5011582;28;20041;-89
2023/04/26 07:37:52;;;;;;;40.85;28.50;;;;;;;16.68;74.34;99796.75;5012263;28;20026;-87
2023/04/26 07:40:18;;;;;;;33.03;24.40;;;;;;;16.76;73.93;99791.22;5011791;28;20033;-89
2023/04/26 07:42:44;;;;;;;32.47;23.67;;;;;;;16.82;73.29;99790.50;5012239;28;20113;-89
2023/04/26 07:45:10;;;;;;;26.45;18.02;;;;;;;16.71;71.51;99790.94;5011354;28;20087;-90
2023/04/26 07:47:36;;;;;;;26.77;17.38;;;;;;;16.71;71.38;99799.94;5010137;28;20033;-87
2023/04/26 07:50:01;;;;;;;23.35;15.95;;;;;;;16.66;70.95;99794.22;5009878;28;20038;-87
2023/04/26 07:52:26;;;;;;;20.50;15.63;;;;;;;16.72;71.04;99790.78;5011540;28;20026;-88
2023/04/26 07:54:52;;;;;;;19.60;14.57;;;;;;;16.73;70.86;99769.88;5011558;28;20237;-87
2023/04/26 07:57:17;;;;;;;16.77;12.38;;;;;;;16.99;70.18;99781.16;5020980;28;20022;-88
2023/04/26 07:59:43;;;;;;;14.68;11.57;;;;;;;17.00;69.51;99785.53;5021669;28;20022;-87
2023/04/26 08:02:08;;;;;;;12.27;9.90;;;;;;;17.07;68.59;99791.91;5027084;28;20018;-85
2023/04/26 08:04:34;;;;;;;17.02;10.27;;;;;;;17.27;68.79;99790.34;5035006;28;20061;-82
2023/04/26 08:07:00;;;;;;;18.92;13.15;;;;;;;17.60;68.92;99795.41;5027329;28;20098;-85
2023/04/26 08:09:27;;;;;;;13.25;10.55;;;;;;;17.57;67.16;99787.63;5012216;28;20093;-86
2023/04/26 08:11:53;;;;;;;14.63;11.23;;;;;;;17.86;66.84;99795.69;5017094;28;20045;-85
2023/04/26 08:14:18;;;;;;;17.73;9.77;;;;;;;17.89;65.97;99788.00;5013524;28;20054;-85
2023/04/26 08:16:43;;;;;;;15.82;10.40;;;;;;;17.79;64.65;99786.66;5018218;28;20811;-85
2023/04/26 08:19:09;;;;;;;16.40;11.10;;;;;;;17.84;65.24;99781.47;5024720;28;20044;-86
2023/04/26 08:21:34;;;;;;;15.32;9.85;;;;;;;17.99;65.11;99782.25;5029639;28;20086;-89
2023/04/26 08:24:00;;;;;;;20.98;11.45;;;;;;;18.20;65.71;99784.97;5029604;28;20053;-85
2023/04/26 08:26:25;;;;;;;16.40;11.27;;;;;;;18.26;63.89;99778.75;5034403;28;20022;-85
2023/04/26 08:28:51;;;;;;;20.45;10.50;;;;;;;18.13;62.36;99784.09;5035091;28;20045;-85
2023/04/26 08:31:16;;;;;;;20.75;10.38;;;;;;;18.37;62.74;99782.84;5022943;28;20028;-86
2023/04/26 08:33:42;;;;;;;20.00;11.65;;;;;;;18.34;61.43;99786.81;5011473;28;20088;-92
2023/04/26 08:36:07;;;;;;;25.85;11.93;;;;;;;18.34;61.38;99762.31;4999867;28;20038;-87
2023/04/26 08:38:33;;;;;;;16.77;11.57;;;;;;;18.39;61.34;99770.72;5033864;28;20037;-89
2023/04/26 08:41:01;;;;;;;16.50;11.07;;;;;;;18.33;60.94;99776.97;5025842;28;20018;-91
2023/04/26 08:43:28;;;;;;;23.73;11.23;;;;;;;18.46;60.85;99779.81;5022740;28;20018;-92
2023/04/26 08:45:54;;;;;;;24.35;12.10;;;;;;;18.46;60.45;99785.25;5034004;28;20026;-86
2023/04/26 08:48:20;;;;;;;16.83;11.05;;;;;;;18.57;59.66;99783.06;5035428;28;20065;-93
2023/04/26 08:50:47;;;;;;;21.15;12.52;;;;;;;18.52;60.79;99782.81;5016473;28;20473;-93
2023/04/26 08:53:20;;;;;;;23.50;12.10;;;;;;;18.58;60.79;99779.28;5024430;28;20095;-81
2023/04/26 08:55:49;;;;;;;17.70;11.43;;;;;;;18.57;59.20;99783.06;5030326;28;20119;-90
2023/04/26 08:58:16;;;;;;;21.13;10.85;;;;;;;18.66;59.32;99787.31;5032531;28;20021;-86
2023/04/26 09:00:47;;;;;;;18.05;12.27;;;;;;;18.60;59.48;99788.09;5036018;28;20022;-84
2023/04/26 09:03:13;;;;;;;29.35;13.75;;;;;;;18.54;60.88;99783.44;5035312;28;20085;-94
2023/04/26 09:05:42;;;;;;;19.73;13.35;;;;;;;18.59;61.26;99781.00;5012217;28;20403;-91
2023/04/26 09:08:12;;;;;;;16.55;12.23;;;;;;;18.64;61.01;99790.25;5014702;28;20060;-90
2023/04/26 09:10:37;;;;;;;23.10;14.30;;;;;;;18.54;61.96;99773.41;5013425;28;20026;-90
2023/04/26 09:13:03;;;;;;;23.23;15.32;;;;;;;18.41;62.39;99787.69;5014799;28;20091;-93
2023/04/26 09:15:28;;;;;;;21.98;15.35;;;;;;;18.33;63.98;99792.44;5014542;28;20184;-89
2023/04/26 09:17:54;;;;;;;27.65;16.45;;;;;;;17.89;64.70;99773.56;5023416;28;20025;-91
2023/04/26 09:20:27;;;;;;;25.95;16.85;;;;;;;17.95;65.42;99794.53;5035240;28;20045;-82
2023/04/26 09:23:04;;;;;;;20.48;13.93;;;;;;;17.88;66.41;99786.34;5029166;28;20042;-91
2023/04/26 09:25:30;;;;;;;19.55;13.55;;;;;;;17.90;65.79;99791.56;5012041;28;20029;-91
2023/04/26 09:27:57;;;;;;;21.05;14.65;;;;;;;17.92;65.39;99782.19;5011995;28;20380;-93
2023/04/26 09:30:23;;;;;;;27.58;14.73;;;;;;;17.99;66.06;99795.00;5012614;28;20022;-94
2023/04/26 09:32:52;;;;;;;32.65;17.40;;;;;;;18.16;66.26;99808.22;5012402;28;20025;-90
2023/04/26 09:35:21;;;;;;;32.78;15.55;;;;;;;18.29;65.59;99791.13;5012214;28;20111;-94
2023/04/26 09:38:02;;;;;;;34.05;15.82;;;;;;;18.33;65.07;99790.56;5011559;28;20030;-94
2023/04/26 09:40:36;;;;;;;32.63;13.38;;;;;;;18.10;68.43;99798.09;5011127;28;20036;-93
2023/04/26 09:43:15;;;;;;;27.42;11.90;;;;;;;18.12;70.28;99796.00;5012289;28;20654;-93
2023/04/26 09:45:52;;;;;;;18.85;10.10;;;;;;;18.08;71.51;99783.81;5010835;28;20060;-92
2023/04/26 09:48:29;;;;;;;18.25;10.05;;;;;;;17.91;72.74;99788.69;5011235;28;20033;-93
2023/04/26 09:50:57;;;;;;;18.08;9.85;;;;;;;17.56;74.01;99794.06;5013236;28;20057;-93
2023/04/26 09:53:28;;;;;;;16.17;10.60;;;;;;;17.28;75.44;99783.88;5025997;28;20036;-88
2023/04/26 09:55:55;;;;;;;24.48;12.02;;;;;;;17.15;76.85;99794.56;5029221;28;20052;-84
2023/04/26 09:58:22;;;;;;;13.77;10.00;;;;;;;17.04;77.59;99791.44;5037105;28;20149;-84
2023/04/26 10:00:50;;;;;;;14.80;10.18;;;;;;;16.77;76.63;99796.50;5045790;28;20079;-88
2023/04/26 10:03:17;;;;;;;12.55;10.10;;;;;;;16.67;77.98;99792.34;5022943;28;20025;-86
2023/04/26 10:05:43;;;;;;;16.08;11.00;;;;;;;16.64;79.23;99779.13;5030090;28;20030;-86
2023/04/26 10:08:10;;;;;;;18.10;12.02;;;;;;;16.70;79.76;99787.38;5019367;28;20033;-88
2023/04/26 10:10:36;;;;;;;42.13;14.85;;;;;;;16.77;80.68;99785.63;5020678;28;20112;-87
2023/04/26 10:13:02;;;;;;;24.85;14.35;;;;;;;16.63;80.64;99796.47;5012181;28;20110;-89
2023/04/26 10:15:28;;;;;;;41.90;20.27;;;;;;;16.63;81.39;99791.03;5011289;28;20457;-89
2023/04/26 10:17:54;;;;;;;25.00;13.68;;;;;;;16.64;80.94;99792.69;5010118;28;20032;-88
2023/04/26 10:20:21;;;;;;;18.65;13.10;;;;;;;16.70;80.96;99786.53;5009602;28;20117;-86
2023/04/26 10:22:51;;;;;;;19.67;12.20;;;;;;;16.66;80.95;99782.53;5011486;28;20553;-91
2023/04/26 10:25:17;;;;;;;17.45;11.95;;;;;;;16.67;80.72;99773.31;5010817;28;20030;-89
2023/04/26 10:27:43;;;;;;;16.83;12.10;;;;;;;16.57;81.69;99780.91;5010204;28;20416;-88
2023/04/26 10:30:28;;;;;;;20.52;13.15;;;;;;;16.61;82.01;99782.22;5009975;28;20038;-87
2023/04/26 10:32:54;;;;;;;15.10;11.13;;;;;;;16.65;82.14;99778.09;5010674;28;20683;-86
2023/04/26 10:35:21;;;;;;;23.08;12.75;;;;;;;16.73;82.12;99781.59;5011810;28;20034;-87
2023/04/26 10:37:58;;;;;;;19.00;12.30;;;;;;;16.72;81.64;99784.50;5012989;28;20028;-87
2023/04/26 10:40:25;;;;;;;24.80;14.55;;;;;;;16.76;81.61;99780.38;5013663;28;20546;-86
2023/04/26 10:43:18;;;;;;;20.17;12.93;;;;;;;16.73;81.91;99781.59;5014099;28;20033;-88
2023/04/26 10:45:47;;;;;;;22.77;11.05;;;;;;;16.60;80.82;99780.53;5014052;28;20033;-84
2023/04/26 10:48:30;;;;;;;29.80;13.80;;;;;;;16.77;80.83;99782.91;5015443;28;20030;-88
2023/04/26 10:51:00;;;;;;;19.08;11.07;;;;;;;16.84;81.30;99778.44;5015638;28;20408;-87
2023/04/26 10:53:30;;;;;;;17.08;9.82;;;;;;;16.86;79.13;99779.09;5017264;28;20104;-87
2023/04/26 10:55:56;;;;;;;22.27;10.82;;;;;;;16.83;80.79;99767.75;5023067;28;20030;-88
2023/04/26 10:58:25;;;;;;;53.85;23.48;;;;;;;17.06;81.09;99767.69;5021352;28;20120;-88
2023/04/26 11:01:07;;;;;;;18.58;10.77;;;;;;;17.16;79.81;99777.22;5014119;28;20485;-87
2023/04/26 11:03:33;;;;;;;69.37;27.90;;;;;;;17.37;79.10;99773.72;5014217;28;20038;-88
2023/04/26 11:05:59;;;;;;;26.10;10.80;;;;;;;17.50;77.98;99778.50;5014121;28;20786;-86
2023/04/26 11:08:26;;;;;;;21.35;11.10;;;;;;;17.41;76.25;99781.31;5014173;28;20074;-88
2023/04/26 11:11:05;;;;;;;102.40;38.80;;;;;;;17.50;75.20;99786.66;5013737;28;20069;-89
2023/04/26 11:13:32;;;;;;;183.07;65.68;;;;;;;17.47;74.67;99768.00;5013369;28;20037;-87
2023/04/26 11:16:02;;;;;;;296.13;110.50;;;;;;;17.54;74.19;99768.94;5020670;28;20153;-86